• Join FlightAware (Why Join?)
  • Login
  • US Flag 
10:18PM EDT


 

Airport Tracker/Info


-or-


 

Live Flight TrackerFlight Track Log ✈ DAL3698 ✈ 25-Apr-2013 ✈ KLAN - KMSP

Flight Track Log - Related Links

Times and Time Zones

All times are in EDT time to prevent confusion due to time zone crossing. See the DAL3698 flight status page for this flight to view local times or setup timezone preferences in your user account.

Time Position Orientation Groundspeed Altitude Reporting Facility
EDT Latitude Longitude Course Direction KTS MPH feet Rate Location/Type
07:19AM 42.7789 -84.6494 276° West 152 175 28,000  Level Chicago Center
07:20AM 42.7853 -84.7064 279° West 192 221 4,400 -10,380 Descending Chicago Center
07:21AM 42.7858 -84.7947 271° West 223 257 7,000 2,580 Climbing Chicago Center
07:22AM 42.7394 -85.0366 283° West  Level FlightAware Approximate
07:22AM 42.7864 -84.8903 270° West 246 283 9,700  Level Chicago Center
07:23AM 42.7542 -85.1543 276° West  Level FlightAware Approximate
07:23AM 42.7881 -85.0144 271° West 275 316 11,800  Level Chicago Center
07:24AM 42.7634 -85.2733 276° West  Level FlightAware Approximate
07:24AM 42.7869 -85.1311 269° West 306 352 13,400  Level Chicago Center
07:25AM 42.8106 -85.2478 285° West 329 379 15,100 1,620 Climbing Chicago Center
07:26AM 42.8433 -85.3619 291° West 328 377 16,800 1,560 Climbing Chicago Center
07:27AM 42.8772 -85.4769 292° West 329 379 18,300 1,260 Climbing Chicago Center
07:28AM 42.9128 -85.5964 292° West 338 389 19,400 1,020 Climbing Chicago Center
07:29AM 42.9489 -85.7217 292° West 352 405 20,400 960 Climbing Chicago Center
07:30AM 42.9861 -85.8503 292° West 363 418 21,400 1,020 Climbing Chicago Center
07:31AM 43.0275 -85.9908 292° West 358 412 22,500 1,020 Climbing Chicago Center
07:32AM 43.0622 -86.1147 291° West 360 414 23,500 960 Climbing Chicago Center
07:33AM 43.0978 -86.2400 291° West 357 411 24,500 900 Climbing Chicago Center
07:34AM 43.1317 -86.3586 291° West 339 390 25,400 780 Climbing Chicago Center
07:35AM 43.1653 -86.4781 291° West 336 387 26,100 660 Climbing Chicago Center
07:37AM 43.1992 -86.5956 292° West 334 384 26,800 720 Climbing Chicago Center
07:38AM 43.2383 -86.7369 291° West 331 381 27,600 540 Climbing Chicago Center
07:39AM 43.2708 -86.8547 291° West 331 381 28,000 180 Climbing Chicago Center
07:40AM 43.3047 -86.9756 291° West 338 389 28,000  Level Chicago Center
07:41AM 43.3403 -87.1017 291° West 353 406 28,000  Level Chicago Center
07:42AM 43.3753 -87.2325 290° West 362 417 28,000  Level Chicago Center
07:43AM 43.4103 -87.3636 290° West 368 423 28,000  Level Chicago Center
07:44AM 43.4522 -87.5194 290° West 372 428 28,000  Level Chicago Center
07:45AM 43.4886 -87.6550 290° West 378 435 28,000  Level Chicago Center
07:46AM 43.5253 -87.7914 290° West 381 438 28,000  Level Chicago Center
07:47AM 43.5617 -87.9278 290° West 379 436 28,000  Level Chicago Center
07:48AM 43.5975 -88.0650 290° West 380 437 28,000  Level Chicago Center
07:49AM 43.6333 -88.2025 290° West 382 440 28,000  Level Chicago Center
07:50AM 43.6753 -88.3631 290° West 385 443 28,000  Level Chicago Center
07:51AM 43.7111 -88.5008 290° West 385 443 28,000  Level Chicago Center
07:52AM 43.7469 -88.6392 290° West 386 444 28,000  Level Chicago Center
07:53AM 43.7825 -88.7789 289° West 387 445 28,000  Level Chicago Center
07:54AM 43.8178 -88.9192 289° West 387 445 28,000  Level Chicago Center
07:55AM 43.8533 -89.0608 289° West 388 447 28,000  Level Chicago Center
07:56AM 43.8956 -89.2253 290° West 387 445 28,000  Level Chicago Center
07:57AM 43.9322 -89.3681 290° West 391 450 28,000  Level Chicago Center
07:58AM 43.9692 -89.5103 290° West 392 451 28,000  Level Chicago Center
07:59AM 44.0319 -89.6353 305° West 391 450 28,000  Level Chicago Center
08:00AM 44.1019 -89.7825 304° West 392 451 28,000  Level Minneapolis Center
08:01AM 44.1628 -89.9078 304° West 392 451 28,000  Level Minneapolis Center
08:02AM 44.2239 -90.0339 304° West 392 451 28,000  Level Minneapolis Center
08:03AM 44.2850 -90.1606 304° West 394 453 28,000  Level Minneapolis Center
08:04AM 44.3458 -90.2886 304° West 393 452 28,000  Level Minneapolis Center
08:05AM 44.4058 -90.4161 303° West 395 455 28,000  Level Minneapolis Center
08:06AM 44.4661 -90.5433 304° West 393 452 28,000  Level Minneapolis Center
08:07AM 44.5264 -90.6725 303° West 395 455 28,000  Level Minneapolis Center
08:08AM 44.5892 -90.8075 303° West 396 456 28,000  Level Minneapolis Center
08:09AM 44.6497 -90.9356 304° West 396 456 28,000 -420 Level Minneapolis Center
08:10AM 44.7097 -91.0667 303° West 398 458 27,200 -1,320 Descending Minneapolis Center
08:11AM 44.7706 -91.1964 303° West 400 460 25,300 -2,100 Descending Minneapolis Center
08:12AM 44.8194 -91.3575 293° West 378 435 23,000 -2,100 Descending Minneapolis Center
08:13AM 44.8533 -91.4914 290° West 370 426 21,100 -1,860 Descending Minneapolis Center
08:14AM 44.8861 -91.6250 289° West 362 417 19,200 -1,860 Descending Minneapolis Center
08:15AM 44.9186 -91.7497 290° West 347 399 17,400 -1,920 Descending Minneapolis Center
08:17AM 44.9650 -91.8897 295° West 337 388 15,300 -2,040 Descending FAA TRACON SMA TRACON (SMA)
08:17AM 44.9714 -91.9275 283° West 333 383 14,700 -1,800 Descending FAA TRACON SMA TRACON (SMA)
08:17AM 44.9803 -91.9656 288° West 334 384 14,100 -1,800 Descending FAA TRACON SMA TRACON (SMA)
08:18AM 44.9881 -92.0033 286° West 328 377 13,500 -1,920 Descending FAA TRACON SMA TRACON (SMA)
08:18AM 45.0000 -92.0506 290° West 331 381 12,800 -1,860 Descending FAA TRACON SMA TRACON (SMA)
08:18AM 45.0081 -92.0878 287° West 328 377 12,200 -1,980 Descending FAA TRACON SMA TRACON (SMA)
08:19AM 45.0192 -92.1347 289° West 327 376 11,500 -1,800 Descending FAA TRACON SMA TRACON (SMA)
08:19AM 45.0278 -92.1728 288° West 330 380 11,000 -780 Descending FAA TRACON SMA TRACON (SMA)
08:19AM 45.0375 -92.2111 290° West 331 381 11,000 -180 Level FAA TRACON SMA TRACON (SMA)
08:20AM 45.0483 -92.2592 288° West 335 386 10,900 -180 Descending FAA TRACON SMA TRACON (SMA)
08:20AM 45.0506 -92.2994 274° West 337 388 10,900  Level FAA TRACON SMA TRACON (SMA)
08:20AM 45.0456 -92.3400 260° West 339 390 10,900  Level FAA TRACON SMA TRACON (SMA)
08:21AM 45.0381 -92.3894 258° West 338 389 10,900 -300 Level FAA TRACON SMA TRACON (SMA)
08:21AM 45.0289 -92.4244 250° West 319 367 10,700 -780 Descending FAA TRACON SMA TRACON (SMA)
08:21AM 45.0150 -92.4544 237° Southwest 301 346 10,400 -1,200 Descending FAA TRACON SMA TRACON (SMA)
08:22AM 44.9975 -92.4892 235° Southwest 285 328 9,900 -1,680 Descending FAA TRACON SMA TRACON (SMA)
08:22AM 44.9847 -92.5164 236° Southwest 276 318 9,300 -1,680 Descending FAA TRACON SMA TRACON (SMA)
08:22AM 44.9719 -92.5433 236° Southwest 269 310 8,800 -1,800 Descending FAA TRACON SMA TRACON (SMA)
08:23AM 44.9564 -92.5758 236° Southwest 261 300 8,100 -1,800 Descending FAA TRACON SMA TRACON (SMA)
08:23AM 44.9442 -92.6017 236° Southwest 261 300 7,600 -1,560 Descending FAA TRACON SMA TRACON (SMA)
08:23AM 44.9297 -92.6278 232° Southwest 264 304 7,100 -1,080 Descending FAA TRACON SMA TRACON (SMA)
08:24AM 44.9144 -92.6603 236° Southwest 261 300 6,900 -300 Descending FAA TRACON SMA TRACON (SMA)
08:24AM 44.9017 -92.6858 235° Southwest 260 299 6,900  Level FAA TRACON SMA TRACON (SMA)
08:24AM 44.8897 -92.7114 237° Southwest 256 295 6,900  Level FAA TRACON SMA TRACON (SMA)
08:25AM 44.8769 -92.7367 235° Southwest 258 297 6,900 -480 Level FAA TRACON SMA TRACON (SMA)
08:25AM 44.8611 -92.7686 235° Southwest 257 296 6,600 -1,200 Descending FAA TRACON SMA TRACON (SMA)
08:25AM 44.8483 -92.7939 235° Southwest 256 295 6,100 -1,380 Descending FAA TRACON SMA TRACON (SMA)
08:26AM 44.8364 -92.8189 236° Southwest 253 291 5,700 -1,500 Descending FAA TRACON SMA TRACON (SMA)
08:26AM 44.8217 -92.8489 235° Southwest 247 284 5,100 -1,500 Descending FAA TRACON SMA TRACON (SMA)
08:26AM 44.8094 -92.8733 235° Southwest 244 281 4,700 -1,200 Descending FAA TRACON SMA TRACON (SMA)
08:27AM 44.7978 -92.8967 235° Southwest 240 276 4,300 -900 Descending FAA TRACON SMA TRACON (SMA)
08:27AM 44.7839 -92.9264 237° Southwest 237 273 4,100 -600 Descending FAA TRACON SMA TRACON (SMA)
08:27AM 44.7831 -92.9517 267° West 230 265 3,900 -180 Descending FAA TRACON SMA TRACON (SMA)
08:28AM 44.7906 -92.9819 289° West 214 246 4,000  Climbing FAA TRACON SMA TRACON (SMA)
08:28AM 44.7989 -93.0033 299° West 209 241 3,900 -480 Descending FAA TRACON SMA TRACON (SMA)
08:28AM 44.8081 -93.0233 303° West 201 231 3,700 -780 Descending FAA TRACON SMA TRACON (SMA)
08:29AM 44.8186 -93.0492 300° West 198 228 3,400 -1,080 Descending FAA TRACON SMA TRACON (SMA)
08:29AM 44.8267 -93.0689 300° West 193 222 3,000 -1,080 Descending FAA TRACON SMA TRACON (SMA)
08:29AM 44.8350 -93.0875 302° West 183 211 2,700 -900 Descending FAA TRACON SMA TRACON (SMA)